Details for Air Canada at CYVR




Go Back


Latest METAR
Local Time

CYVR 221700Z 24006KT 30SM SCT250 16/12 A2997 RMK CS4 CONTRAILS SLP149 DENSITY ALT 100FT

22/05/2018, 10:56:56

Description
Results
Air Canada Logo
Number of Pilots based at CYVR
0 Pilots Based here
Number of Air Canada Flights Departed from CYVR
0 Flights Departed
Number of Air Canada Flights Arrived at CYVR
1 Flights Arrived
Number of Air Canada Schedules Departing from CYVR
160 Schedules
Number of Air Canada Schedules Arriving at CYVR
148 Schedules
Number of Air Canada Schedules Departing from CYVR availible today
147 Schedules Today
Number of Air Canada Schedules Arriving at CYVR availible today
132 Schedules Today
Average Landing Rate at CYVR
-292 fpm
Air Canada Average Landing Rate at CYVR
-457 fpm
Total Fuel Purchased at CYVR by Air Canada
0.00 kgs / 0.00 lbs

Pilots Based at CYVR


Pilot ID
Pilot Name
Pilot Rank
No. of Flights
No. of Flying Hours
There are no pilots assigned to this hub!   Will you be the first?
Content